Time;durP1;ratioP1;P1;durP2;ratioP2;P2;SDS_P1;SDS_P2;PMS_P1;PMS_P2;Temp;Humidity;BMP_temperature;BMP_pressure;BME280_temperature;BME280_humidity;BME280_pressure;Samples;Min_cycle;Max_cycle;Signal;HPM_P1;HPM_P2
2022/05/02 00:01:31;;;;;;;12.25;7.78;;;12.80;81.30;;;;;;4977218;28;20031;-84
2022/05/02 00:03:57;;;;;;;11.43;8.73;;;12.80;81.30;;;;;;4946000;28;20031;-84
2022/05/02 00:06:23;;;;;;;10.85;8.43;;;12.70;81.30;;;;;;4960800;28;20446;-84
2022/05/02 00:08:49;;;;;;;10.32;7.88;;;12.70;81.40;;;;;;4978132;28;20463;-87
2022/05/02 00:11:14;;;;;;;9.70;7.78;;;12.70;82.20;;;;;;4980987;28;20030;-84
2022/05/02 00:13:40;;;;;;;10.75;7.70;;;12.60;81.70;;;;;;4948709;28;20033;-84
2022/05/02 00:16:07;;;;;;;10.70;8.13;;;12.60;81.80;;;;;;4948118;28;20367;-84
2022/05/02 00:18:33;;;;;;;16.75;8.07;;;12.50;81.90;;;;;;4964698;28;20110;-84
2022/05/02 00:20:58;;;;;;;11.68;7.53;;;12.60;82.00;;;;;;4964415;28;20037;-85
2022/05/02 00:23:24;;;;;;;14.80;8.05;;;12.50;82.00;;;;;;4964443;28;20105;-84
2022/05/02 00:25:50;;;;;;;11.18;7.65;;;12.50;82.10;;;;;;4998042;28;20081;-84
2022/05/02 00:28:16;;;;;;;10.77;7.55;;;12.50;82.30;;;;;;4964194;28;20030;-85
2022/05/02 00:30:42;;;;;;;10.40;7.75;;;12.40;82.40;;;;;;4963776;28;20022;-85
2022/05/02 00:33:08;;;;;;;13.35;8.23;;;12.40;82.50;;;;;;4997726;28;20030;-84
2022/05/02 00:35:34;;;;;;;11.65;8.13;;;12.40;82.50;;;;;;4964090;28;20033;-84
2022/05/02 00:37:59;;;;;;;13.27;8.00;;;12.30;82.40;;;;;;4964199;28;20069;-84
2022/05/02 00:40:25;;;;;;;12.13;7.70;;;12.30;82.40;;;;;;4964133;28;20076;-84
2022/05/02 00:42:51;;;;;;;12.10;7.93;;;12.30;82.50;;;;;;4980551;28;20031;-84
2022/05/02 00:45:18;;;;;;;10.07;7.72;;;12.30;82.50;;;;;;4980497;28;20033;-84
2022/05/02 00:48:00;;;;;;;12.85;8.20;;;12.20;82.50;;;;;;4979854;28;20026;-84
2022/05/02 00:50:31;;;;;;;10.48;7.38;;;12.20;82.60;;;;;;4964616;28;20471;-84
2022/05/02 00:52:57;;;;;;;11.57;7.90;;;12.20;82.60;;;;;;4997585;28;20027;-85
2022/05/02 00:55:23;;;;;;;9.60;7.10;;;12.20;82.70;;;;;;4975996;28;20066;-84
2022/05/02 00:57:49;;;;;;;11.23;7.93;;;12.10;82.80;;;;;;5004456;28;20098;-83
2022/05/02 01:00:16;;;;;;;10.48;7.90;;;12.10;82.90;;;;;;4972339;28;20014;-81
2022/05/02 01:02:41;;;;;;;11.52;7.80;;;12.10;83.10;;;;;;5003484;28;20034;-83
2022/05/02 01:05:07;;;;;;;10.75;7.68;;;12.10;83.20;;;;;;4971751;28;20014;-83
2022/05/02 01:07:33;;;;;;;11.27;7.78;;;12.00;83.40;;;;;;5019947;28;20035;-83
2022/05/02 01:09:58;;;;;;;12.68;7.90;;;12.00;83.50;;;;;;5000247;28;20058;-84
2022/05/02 01:12:26;;;;;;;11.15;8.05;;;12.00;83.70;;;;;;4993858;28;20027;-82
2022/05/02 01:14:53;;;;;;;11.93;8.25;;;12.00;83.70;;;;;;4948150;28;20327;-83
2022/05/02 01:17:19;;;;;;;11.65;7.72;;;12.00;83.70;;;;;;4979201;28;20081;-83
2022/05/02 01:19:45;;;;;;;11.68;8.25;;;12.00;83.80;;;;;;4979027;28;20038;-83
2022/05/02 01:22:11;;;;;;;11.07;7.65;;;11.90;83.80;;;;;;4946999;28;20028;-83
2022/05/02 01:24:39;;;;;;;12.18;7.93;;;11.90;84.00;;;;;;4979729;28;20029;-83
2022/05/02 01:27:08;;;;;;;10.30;8.23;;;11.90;84.10;;;;;;4979051;28;20023;-84
2022/05/02 01:29:35;;;;;;;13.15;8.48;;;11.90;84.30;;;;;;4979109;28;20038;-83
2022/05/02 01:32:06;;;;;;;10.93;7.47;;;11.90;84.40;;;;;;4979192;28;20034;-83
2022/05/02 01:34:32;;;;;;;14.80;9.13;;;11.90;84.40;;;;;;4979235;28;20378;-83
2022/05/02 01:36:58;;;;;;;10.90;8.13;;;11.80;84.50;;;;;;4978868;28;20041;-84
2022/05/02 01:39:24;;;;;;;10.57;8.10;;;11.80;84.60;;;;;;4996488;28;20038;-83
2022/05/02 01:41:49;;;;;;;11.35;8.55;;;11.80;84.80;;;;;;4962483;28;20027;-83
2022/05/02 01:44:15;;;;;;;10.57;7.72;;;11.80;84.80;;;;;;4978744;28;20052;-84
2022/05/02 01:46:41;;;;;;;9.73;7.38;;;11.80;85.00;;;;;;4996178;28;20096;-83
2022/05/02 01:49:07;;;;;;;11.30;8.07;;;11.80;85.20;;;;;;4962403;28;20031;-84
2022/05/02 01:51:33;;;;;;;10.98;8.20;;;11.80;85.50;;;;;;4978868;28;20033;-83
2022/05/02 01:53:58;;;;;;;12.75;8.82;;;11.70;85.60;;;;;;4978678;28;20089;-83
2022/05/02 01:56:24;;;;;;;11.95;8.50;;;11.70;85.90;;;;;;4961774;28;20031;-84
2022/05/02 01:58:49;;;;;;;11.15;8.05;;;11.70;86.00;;;;;;4962366;28;20048;-83
2022/05/02 02:01:15;;;;;;;10.95;8.23;;;11.70;86.30;;;;;;4946251;28;20157;-83
2022/05/02 02:03:41;;;;;;;14.18;8.98;;;11.70;86.40;;;;;;4962548;28;20125;-83
2022/05/02 02:06:07;;;;;;;12.10;9.15;;;11.70;86.60;;;;;;4995919;28;20034;-84
2022/05/02 02:08:34;;;;;;;12.55;8.20;;;11.70;86.80;;;;;;4962572;28;20073;-83
2022/05/02 02:11:07;;;;;;;10.32;8.13;;;11.60;86.90;;;;;;4995883;28;20022;-83
2022/05/02 02:13:33;;;;;;;12.32;8.30;;;11.60;87.10;;;;;;4978383;28;20053;-84
2022/05/02 02:16:00;;;;;;;13.82;8.38;;;11.60;87.20;;;;;;4995677;28;20073;-83
2022/05/02 02:18:27;;;;;;;10.68;8.13;;;11.60;87.40;;;;;;4962134;28;20497;-83
2022/05/02 02:20:54;;;;;;;11.15;8.15;;;11.60;87.30;;;;;;4961897;28;20026;-83
2022/05/02 02:23:21;;;;;;;12.48;8.65;;;11.60;87.30;;;;;;4995061;28;20041;-83
2022/05/02 02:25:47;;;;;;;13.13;8.88;;;11.60;87.30;;;;;;4977968;28;20089;-83
2022/05/02 02:28:14;;;;;;;12.18;8.75;;;11.50;87.30;;;;;;4977897;28;20057;-84
2022/05/02 02:30:40;;;;;;;12.35;8.75;;;11.50;87.40;;;;;;4962113;28;20053;-83
2022/05/02 02:33:05;;;;;;;13.98;8.73;;;11.50;87.40;;;;;;4960761;28;20471;-84
2022/05/02 02:35:31;;;;;;;12.43;8.88;;;11.50;87.30;;;;;;4977848;28;20037;-83
2022/05/02 02:37:57;;;;;;;17.33;9.18;;;11.50;87.30;;;;;;4945895;28;20041;-83
2022/05/02 02:40:23;;;;;;;10.40;8.57;;;11.40;87.30;;;;;;4977889;28;20235;-84
2022/05/02 02:42:49;;;;;;;12.77;9.45;;;11.40;87.20;;;;;;4977887;28;20470;-83
2022/05/02 02:45:15;;;;;;;14.25;9.30;;;11.40;87.20;;;;;;4977605;28;20097;-84
2022/05/02 02:47:41;;;;;;;13.05;8.88;;;11.40;87.30;;;;;;4977667;28;20026;-83
2022/05/02 02:50:07;;;;;;;12.02;8.70;;;11.30;87.40;;;;;;4977417;28;20041;-84
2022/05/02 02:52:33;;;;;;;12.60;9.48;;;11.30;87.40;;;;;;4977821;28;20046;-83
2022/05/02 02:54:59;;;;;;;14.07;9.60;;;11.30;87.50;;;;;;4977657;28;20037;-83
2022/05/02 02:57:25;;;;;;;12.30;9.02;;;11.30;87.50;;;;;;4961104;28;20046;-84
2022/05/02 02:59:50;;;;;;;13.85;9.65;;;11.20;87.60;;;;;;4961437;28;20030;-83
2022/05/02 03:02:16;;;;;;;12.93;9.80;;;11.20;87.60;;;;;;4961220;28;20023;-83
2022/05/02 03:07:27;;;;;;;11.25;8.65;;;11.20;87.90;;;;;;4979859;28;20808;-84
2022/05/02 03:09:53;;;;;;;12.15;8.90;;;11.10;87.90;;;;;;4961491;28;20038;-83
2022/05/02 03:12:20;;;;;;;13.20;9.43;;;11.10;87.90;;;;;;4961156;28;20558;-84
2022/05/02 03:14:46;;;;;;;11.77;8.82;;;11.10;88.00;;;;;;4977377;28;20049;-83
2022/05/02 03:17:12;;;;;;;17.40;9.40;;;11.10;88.00;;;;;;4961048;28;20035;-83
2022/05/02 03:19:38;;;;;;;13.25;9.63;;;11.00;88.00;;;;;;4994869;28;20030;-84
2022/05/02 03:22:05;;;;;;;13.50;9.88;;;11.00;88.10;;;;;;4977123;28;20019;-83
2022/05/02 03:24:31;;;;;;;12.75;9.50;;;11.00;88.30;;;;;;4977027;28;20018;-83
2022/05/02 03:26:57;;;;;;;14.00;9.80;;;10.90;88.40;;;;;;4994242;28;20035;-83
2022/05/02 03:29:22;;;;;;;15.13;10.00;;;10.90;88.50;;;;;;4960715;28;20359;-84
2022/05/02 03:31:48;;;;;;;15.27;10.27;;;10.90;88.50;;;;;;4994643;28;20113;-83
2022/05/02 03:34:13;;;;;;;14.57;9.65;;;10.80;88.50;;;;;;4976963;28;20577;-84
2022/05/02 03:36:39;;;;;;;12.65;9.95;;;10.80;88.70;;;;;;4960849;28;20034;-83
2022/05/02 03:39:05;;;;;;;14.35;10.50;;;10.80;88.80;;;;;;4960833;28;20392;-83
2022/05/02 03:41:31;;;;;;;13.13;9.02;;;10.70;88.80;;;;;;4993839;28;20042;-83
2022/05/02 03:43:57;;;;;;;14.45;10.07;;;10.70;88.90;;;;;;4994080;28;20034;-83
2022/05/02 03:46:24;;;;;;;17.20;10.35;;;10.70;89.10;;;;;;4976696;28;20129;-83
2022/05/02 03:48:49;;;;;;;16.00;10.60;;;10.70;89.20;;;;;;4994149;28;20105;-83
2022/05/02 03:51:15;;;;;;;13.30;9.80;;;10.70;89.30;;;;;;4976460;28;20050;-84
2022/05/02 03:53:41;;;;;;;15.55;9.75;;;10.60;89.30;;;;;;4944869;28;20032;-84
2022/05/02 03:56:06;;;;;;;14.70;10.43;;;10.60;89.30;;;;;;4960700;28;20043;-84
2022/05/02 03:58:32;;;;;;;11.63;9.38;;;10.60;89.40;;;;;;4960126;28;20054;-83
2022/05/02 04:00:58;;;;;;;13.75;9.80;;;10.60;89.60;;;;;;4944376;28;20022;-84
2022/05/02 04:03:24;;;;;;;13.00;10.15;;;10.50;89.70;;;;;;4960767;28;20026;-84
2022/05/02 04:05:50;;;;;;;15.25;9.88;;;10.50;89.70;;;;;;4961052;28;20100;-83
2022/05/02 04:08:16;;;;;;;13.43;8.73;;;10.50;89.80;;;;;;4960459;28;20023;-84
2022/05/02 04:10:41;;;;;;;12.05;8.13;;;10.40;89.80;;;;;;4945042;28;20030;-83
2022/05/02 04:13:08;;;;;;;12.70;9.30;;;10.40;90.00;;;;;;4944342;28;20033;-84
2022/05/02 04:15:34;;;;;;;11.27;8.50;;;10.40;90.10;;;;;;4976811;28;20124;-84
2022/05/02 04:18:00;;;;;;;14.10;8.82;;;10.40;90.20;;;;;;4961224;28;20070;-83
2022/05/02 04:20:26;;;;;;;12.13;8.52;;;10.30;90.20;;;;;;4977313;28;20026;-83
2022/05/02 04:22:52;;;;;;;12.80;9.18;;;10.30;90.30;;;;;;4976924;28;20027;-83
2022/05/02 04:25:17;;;;;;;13.20;9.10;;;10.30;90.30;;;;;;4994365;28;20030;-84
2022/05/02 04:27:44;;;;;;;11.35;9.13;;;10.20;90.30;;;;;;4977382;28;20113;-83
2022/05/02 04:30:11;;;;;;;12.52;9.50;;;10.20;90.40;;;;;;4994049;28;20034;-83
2022/05/02 04:32:37;;;;;;;12.45;9.50;;;10.20;90.50;;;;;;4960380;28;20033;-83
2022/05/02 04:35:04;;;;;;;17.13;9.55;;;10.20;90.60;;;;;;4960587;28;20467;-83
2022/05/02 04:37:29;;;;;;;12.13;9.15;;;10.10;90.60;;;;;;4977195;28;20046;-83
2022/05/02 04:39:55;;;;;;;14.02;9.88;;;10.10;90.70;;;;;;4953348;28;20034;-83
2022/05/02 04:42:21;;;;;;;16.70;9.30;;;10.10;90.80;;;;;;4984677;28;20053;-85
2022/05/02 04:44:47;;;;;;;13.50;9.68;;;10.00;90.80;;;;;;4984805;28;20017;-84
2022/05/02 04:47:12;;;;;;;15.02;10.50;;;10.00;90.90;;;;;;5000955;28;20018;-82
2022/05/02 04:49:38;;;;;;;15.05;10.85;;;10.00;91.00;;;;;;4984431;28;20006;-82
2022/05/02 04:52:04;;;;;;;14.10;10.38;;;10.00;91.10;;;;;;4984582;28;20011;-83
2022/05/02 04:54:30;;;;;;;14.60;10.38;;;10.00;91.50;;;;;;4983269;28;20110;-84
2022/05/02 04:56:56;;;;;;;18.60;11.88;;;10.00;91.40;;;;;;4993783;28;20054;-83
2022/05/02 04:59:21;;;;;;;14.07;10.57;;;10.00;91.50;;;;;;4948970;28;20030;-84
2022/05/02 05:01:47;;;;;;;14.75;10.27;;;9.90;91.60;;;;;;4964125;28;20086;-83
2022/05/02 05:04:12;;;;;;;13.18;9.45;;;10.00;91.80;;;;;;4963707;28;20054;-84
2022/05/02 05:06:38;;;;;;;13.60;9.98;;;9.90;91.90;;;;;;4963122;28;20509;-83
2022/05/02 05:09:04;;;;;;;14.05;9.30;;;10.00;92.10;;;;;;4996779;28;20494;-83
2022/05/02 05:12:00;;;;;;;13.93;9.77;;;9.90;92.20;;;;;;4980175;28;20399;-83
2022/05/02 05:17:44;;;;;;;13.88;9.77;;;10.00;92.50;;;;;;4996320;28;20093;-84
2022/05/02 05:20:15;;;;;;;15.30;9.77;;;10.00;92.70;;;;;;4983415;28;20058;-83
2022/05/02 05:22:44;;;;;;;14.02;10.38;;;9.90;92.80;;;;;;4979268;28;20030;-83
2022/05/02 05:25:24;;;;;;;17.58;10.27;;;10.00;93.10;;;;;;4978892;28;20033;-83
2022/05/02 05:28:16;;;;;;;14.38;10.13;;;10.00;93.30;;;;;;4996505;28;20081;-83
2022/05/02 05:30:50;;;;;;;13.32;10.40;;;10.00;93.50;;;;;;4974711;28;20026;-83
2022/05/02 05:33:59;;;;;;;15.32;10.20;;;10.00;93.70;;;;;;4969095;28;20046;-84
2022/05/02 05:37:02;;;;;;;14.50;9.45;;;10.00;94.00;;;;;;4921786;28;20038;-83
2022/05/02 05:40:05;;;;;;;13.93;10.00;;;10.10;94.30;;;;;;4978780;28;20030;-84
2022/05/02 05:42:54;;;;;;;13.95;10.23;;;10.10;94.60;;;;;;4978922;28;20037;-83
2022/05/02 05:45:24;;;;;;;13.77;9.95;;;10.10;94.80;;;;;;4959577;28;20038;-84
2022/05/02 05:48:18;;;;;;;13.20;10.05;;;10.20;95.00;;;;;;4978333;28;20466;-83
2022/05/02 05:50:54;;;;;;;14.50;10.43;;;10.20;95.20;;;;;;4978377;28;20069;-84
2022/05/02 05:53:45;;;;;;;15.52;10.57;;;10.20;95.40;;;;;;4995376;28;20034;-84
2022/05/02 05:56:35;;;;;;;13.27;10.15;;;10.30;95.70;;;;;;4978290;28;20145;-83
2022/05/02 05:59:01;;;;;;;12.88;9.35;;;10.30;95.80;;;;;;4978877;28;20033;-84
2022/05/02 06:01:49;;;;;;;15.23;9.48;;;10.30;96.00;;;;;;4995798;28;20347;-85
2022/05/02 06:04:15;;;;;;;12.60;9.75;;;10.40;96.20;;;;;;4996295;28;20100;-84
2022/05/02 06:06:41;;;;;;;16.67;10.00;;;10.40;96.30;;;;;;4978315;28;20034;-84
2022/05/02 06:09:10;;;;;;;13.15;9.70;;;10.40;96.50;;;;;;4962690;28;20113;-84
2022/05/02 06:11:40;;;;;;;14.20;10.50;;;10.50;96.60;;;;;;4978569;28;20037;-85
2022/05/02 06:14:06;;;;;;;13.35;9.60;;;10.50;96.80;;;;;;4978823;28;20054;-84
2022/05/02 06:19:24;;;;;;;14.00;10.15;;;10.60;97.00;;;;;;4981206;28;20101;-86
2022/05/02 06:21:51;;;;;;;12.60;9.60;;;10.60;97.10;;;;;;4978712;28;20113;-86
2022/05/02 06:24:16;;;;;;;16.40;10.15;;;10.70;97.30;;;;;;4978709;28;20030;-86
2022/05/02 06:26:49;;;;;;;12.90;9.75;;;10.70;97.50;;;;;;4979183;28;20080;-87
2022/05/02 06:29:17;;;;;;;14.43;11.10;;;10.80;97.60;;;;;;4978893;28;20387;-84
2022/05/02 06:31:46;;;;;;;15.50;10.60;;;10.80;97.70;;;;;;4981678;28;20039;-83
2022/05/02 06:34:14;;;;;;;14.32;10.38;;;10.90;97.90;;;;;;4997607;28;20030;-84
2022/05/02 06:37:13;;;;;;;15.70;9.73;;;10.90;98.00;;;;;;4976613;28;20033;-85
2022/05/02 06:40:03;;;;;;;12.48;10.40;;;11.00;98.10;;;;;;4977520;28;20502;-83
2022/05/02 06:42:35;;;;;;;14.25;9.80;;;11.10;98.30;;;;;;4977491;28;20376;-85
2022/05/02 06:45:23;;;;;;;12.82;9.18;;;11.10;98.50;;;;;;4977508;28;20026;-85
2022/05/02 06:48:07;;;;;;;13.90;9.32;;;11.20;98.70;;;;;;4977613;28;20049;-84
2022/05/02 06:50:36;;;;;;;13.27;9.10;;;11.30;99.00;;;;;;4994688;28;20236;-84
2022/05/02 06:53:32;;;;;;;12.63;9.55;;;11.30;99.20;;;;;;4996297;28;20113;-84
2022/05/02 06:56:23;;;;;;;11.75;8.45;;;11.40;99.40;;;;;;4980624;28;20085;-84
2022/05/02 06:59:00;;;;;;;11.68;9.00;;;11.40;99.60;;;;;;4981887;28;20042;-84
2022/05/02 07:01:49;;;;;;;13.23;9.32;;;11.50;99.70;;;;;;4982462;28;20006;-84
2022/05/02 07:04:23;;;;;;;12.52;8.68;;;11.60;99.70;;;;;;4978699;28;20030;-83
2022/05/02 07:07:19;;;;;;;12.68;8.77;;;11.70;99.70;;;;;;4995980;28;20033;-83
2022/05/02 07:09:49;;;;;;;13.00;8.70;;;11.80;99.70;;;;;;4978406;28;20019;-83
2022/05/02 07:12:26;;;;;;;10.68;8.40;;;11.80;99.70;;;;;;4978435;28;20045;-84
2022/05/02 07:15:21;;;;;;;11.45;7.75;;;11.90;99.60;;;;;;4979167;28;20168;-84
2022/05/02 07:18:08;;;;;;;13.70;8.57;;;12.00;99.50;;;;;;4978549;28;20046;-84
2022/05/02 07:20:58;;;;;;;10.02;7.38;;;12.10;99.40;;;;;;4978084;28;20034;-84
2022/05/02 07:23:27;;;;;;;9.30;6.70;;;12.20;99.40;;;;;;4977605;28;20034;-83
2022/05/02 07:26:15;;;;;;;8.65;7.03;;;12.30;99.30;;;;;;4977188;28;20041;-84
2022/05/02 07:28:46;;;;;;;12.10;7.20;;;12.30;99.20;;;;;;4977787;28;20042;-84
2022/05/02 07:31:13;;;;;;;10.40;7.15;;;12.50;99.10;;;;;;4978172;28;20121;-83
2022/05/02 07:33:40;;;;;;;10.02;6.38;;;12.60;99.10;;;;;;4961608;28;20042;-84
2022/05/02 07:36:07;;;;;;;10.70;6.50;;;12.60;98.70;;;;;;4961636;28;20060;-84
2022/05/02 07:38:36;;;;;;;9.63;6.28;;;12.70;98.10;;;;;;4995233;28;20084;-83
2022/05/02 07:41:27;;;;;;;8.10;5.88;;;12.80;97.90;;;;;;4995344;28;20046;-83
2022/05/02 07:43:52;;;;;;;8.25;6.38;;;12.90;97.60;;;;;;4995271;28;20035;-84
2022/05/02 07:46:20;;;;;;;9.30;6.57;;;13.00;97.60;;;;;;4977632;28;20034;-84
2022/05/02 07:48:50;;;;;;;9.30;6.68;;;13.10;97.30;;;;;;4977626;28;20057;-83
2022/05/02 07:51:17;;;;;;;10.60;6.60;;;13.20;96.80;;;;;;4977596;28;20446;-84
2022/05/02 07:53:44;;;;;;;8.80;6.50;;;13.30;96.20;;;;;;4977033;28;20034;-84
2022/05/02 07:56:12;;;;;;;9.93;6.18;;;13.40;95.60;;;;;;4976799;28;20467;-84
2022/05/02 07:58:41;;;;;;;10.45;6.30;;;13.60;95.10;;;;;;4994922;28;20042;-84
2022/05/02 08:01:06;;;;;;;9.15;6.70;;;13.60;95.00;;;;;;4994404;28;20033;-83
2022/05/02 08:03:32;;;;;;;10.30;6.05;;;13.70;94.90;;;;;;4976872;28;20030;-84
2022/05/02 08:06:16;;;;;;;11.43;6.47;;;13.80;94.90;;;;;;4960555;28;20031;-83
2022/05/02 08:09:14;;;;;;;8.93;6.47;;;14.00;94.50;;;;;;4994119;28;20022;-84
2022/05/02 08:11:49;;;;;;;9.57;7.18;;;14.10;94.10;;;;;;4994428;28;20022;-84
2022/05/02 08:14:24;;;;;;;9.05;6.47;;;14.20;94.00;;;;;;4976558;28;20026;-83
2022/05/02 08:17:07;;;;;;;11.93;6.65;;;14.30;94.00;;;;;;4976708;28;20062;-83
2022/05/02 08:19:50;;;;;;;8.88;6.32;;;14.40;93.90;;;;;;4977014;28;20023;-84
2022/05/02 08:28:45;;;;;;;9.13;6.07;;;14.80;91.90;;;;;;5015898;28;20066;-85
2022/05/02 08:31:25;;;;;;;9.15;6.10;;;14.90;91.40;;;;;;5003356;28;20036;-84
2022/05/02 08:34:10;;;;;;;9.05;6.38;;;14.90;91.10;;;;;;5019417;28;20027;-84
2022/05/02 08:36:54;;;;;;;10.82;6.70;;;15.10;90.80;;;;;;5000790;28;20041;-84
2022/05/02 08:39:31;;;;;;;9.30;6.25;;;15.20;90.10;;;;;;5016709;28;20027;-84
2022/05/02 08:42:02;;;;;;;9.77;6.53;;;15.30;89.30;;;;;;4994088;28;20085;-84
2022/05/02 08:44:46;;;;;;;8.95;6.35;;;15.40;89.10;;;;;;4984538;28;20026;-84
2022/05/02 08:47:30;;;;;;;9.77;6.22;;;15.50;88.60;;;;;;4983232;28;20037;-83
2022/05/02 08:50:08;;;;;;;9.23;6.13;;;15.50;88.50;;;;;;4998100;28;20434;-84
2022/05/02 08:53:07;;;;;;;7.30;5.47;;;15.60;88.20;;;;;;4981545;28;20030;-83
2022/05/02 08:56:17;;;;;;;10.68;6.65;;;15.80;88.20;;;;;;4982616;28;20030;-83
2022/05/02 08:59:12;;;;;;;9.27;6.53;;;15.90;87.00;;;;;;4921723;29;20067;-84
2022/05/02 09:01:49;;;;;;;9.38;6.43;;;15.90;85.90;;;;;;5002170;28;20106;-82
2022/05/02 09:04:48;;;;;;;9.27;5.93;;;16.00;84.70;;;;;;4999869;28;20030;-84
2022/05/02 09:07:42;;;;;;;8.27;6.13;;;16.10;83.80;;;;;;4980328;28;20041;-83
2022/05/02 09:10:27;;;;;;;8.77;6.85;;;16.20;83.30;;;;;;4980096;28;20113;-83
2022/05/02 09:13:37;;;;;;;9.45;6.93;;;16.30;83.00;;;;;;4997640;28;20030;-84
2022/05/02 09:16:28;;;;;;;9.13;7.47;;;16.40;82.60;;;;;;4921019;29;20128;-83
2022/05/02 09:19:31;;;;;;;11.15;7.80;;;16.50;82.10;;;;;;4995163;28;20031;-83
2022/05/02 09:22:41;;;;;;;9.75;7.18;;;16.50;81.40;;;;;;4980085;28;20423;-84
2022/05/02 09:25:08;;;;;;;10.65;7.70;;;16.60;81.00;;;;;;4994554;28;20010;-83
2022/05/02 09:27:48;;;;;;;9.65;7.40;;;16.70;80.20;;;;;;4996669;28;20053;-83
2022/05/02 09:30:17;;;;;;;8.90;6.37;;;16.70;79.40;;;;;;4980741;28;20462;-83
2022/05/02 09:33:34;;;;;;;8.40;7.03;;;16.80;79.40;;;;;;4980573;28;20327;-83
2022/05/02 09:36:05;;;;;;;9.30;6.80;;;16.90;79.40;;;;;;4937775;29;20036;-88
2022/05/02 09:38:50;;;;;;;8.88;6.93;;;17.00;79.60;;;;;;4978648;28;20050;-87
2022/05/02 09:41:34;;;;;;;9.30;7.40;;;17.10;80.10;;;;;;4999653;28;20058;-88
2022/05/02 09:50:16;;;;;;;9.40;6.55;;;17.20;78.60;;;;;;5010835;28;20050;-85
2022/05/02 09:52:50;;;;;;;8.70;7.00;;;17.40;79.00;;;;;;5000230;28;20046;-88
2022/05/02 09:58:22;;;;;;;10.77;7.55;;;17.50;77.70;;;;;;4997090;28;20065;-87
2022/05/02 10:01:11;;;;;;;11.80;7.45;;;17.60;76.50;;;;;;4979383;28;20022;-87
2022/05/02 10:04:01;;;;;;;10.60;8.00;;;17.60;75.80;;;;;;4979420;28;20022;-87
2022/05/02 10:06:41;;;;;;;14.70;8.40;;;17.70;74.90;;;;;;4979574;28;20034;-87
2022/05/02 10:09:24;;;;;;;11.23;7.70;;;17.80;74.30;;;;;;4978819;28;20038;-86
2022/05/02 10:12:11;;;;;;;10.95;8.30;;;17.80;74.20;;;;;;4995959;28;20026;-85
2022/05/02 10:15:10;;;;;;;9.57;8.18;;;17.90;73.50;;;;;;4996069;28;20068;-85
2022/05/02 10:18:04;;;;;;;11.38;8.18;;;17.90;73.30;;;;;;4960038;28;20043;-86
2022/05/02 10:21:09;;;;;;;10.00;8.18;;;18.00;72.80;;;;;;4979028;28;20413;-84
2022/05/02 10:23:54;;;;;;;10.23;7.15;;;18.10;72.90;;;;;;4964754;28;20041;-85
2022/05/02 10:26:44;;;;;;;8.55;6.78;;;18.10;73.00;;;;;;4979092;28;20037;-85
2022/05/02 10:29:31;;;;;;;8.25;6.65;;;18.20;74.40;;;;;;4978926;28;20033;-85
2022/05/02 10:32:19;;;;;;;11.63;8.35;;;18.30;74.90;;;;;;4981053;28;20022;-86
2022/05/02 10:34:47;;;;;;;10.40;7.57;;;18.40;73.00;;;;;;4960435;28;20470;-86
2022/05/02 10:37:14;;;;;;;9.70;7.10;;;18.40;72.40;;;;;;4978757;28;20030;-85
2022/05/02 10:39:46;;;;;;;8.35;6.93;;;18.50;72.20;;;;;;4995986;28;20030;-85
2022/05/02 10:42:16;;;;;;;8.38;6.88;;;18.60;72.00;;;;;;4998006;28;20486;-85
2022/05/02 10:44:52;;;;;;;8.55;6.53;;;18.60;72.00;;;;;;4964414;28;20026;-85
2022/05/02 10:47:24;;;;;;;9.20;7.35;;;18.80;71.90;;;;;;4996308;28;20037;-85
2022/05/02 10:50:04;;;;;;;9.98;8.40;;;18.80;72.00;;;;;;4980451;28;20027;-85
2022/05/02 10:52:54;;;;;;;9.40;7.68;;;18.90;71.40;;;;;;4980286;28;20046;-87
2022/05/02 10:55:30;;;;;;;9.82;7.85;;;18.90;70.30;;;;;;4981953;28;20109;-95
2022/05/02 10:58:13;;;;;;;9.13;7.20;;;19.00;69.60;;;;;;4981958;28;20051;-96
2022/05/02 11:01:01;;;;;;;10.73;8.15;;;19.10;69.20;;;;;;4980179;28;20032;-92
2022/05/02 11:03:48;;;;;;;9.77;7.40;;;19.10;69.10;;;;;;4996644;28;20027;-93
2022/05/02 11:06:27;;;;;;;14.48;8.70;;;19.20;69.00;;;;;;4996452;28;20031;-90
2022/05/02 11:09:01;;;;;;;11.20;8.20;;;19.20;68.10;;;;;;4997421;28;20023;-88
2022/05/02 11:11:42;;;;;;;9.32;7.50;;;19.30;66.80;;;;;;4980098;28;20089;-89
2022/05/02 11:14:36;;;;;;;9.82;7.45;;;19.30;65.80;;;;;;4981055;28;20022;-92
2022/05/02 11:17:34;;;;;;;10.63;7.68;;;19.30;65.70;;;;;;4979448;28;20045;-91
2022/05/02 11:23:04;;;;;;;9.35;7.18;;;19.40;65.40;;;;;;4996381;28;20161;-93
2022/05/02 11:25:38;;;;;;;9.23;7.35;;;19.50;65.70;;;;;;4997035;28;20028;-93
2022/05/02 11:28:16;;;;;;;12.30;7.43;;;19.60;65.10;;;;;;4996599;28;20042;-96
2022/05/02 11:30:56;;;;;;;8.73;6.80;;;19.70;64.50;;;;;;4981825;28;20030;-94
2022/05/02 11:33:50;;;;;;;9.57;7.53;;;19.70;64.10;;;;;;4988312;28;20081;-93
2022/05/02 11:36:23;;;;;;;9.63;7.68;;;19.80;63.30;;;;;;4983458;28;20085;-94
2022/05/02 11:38:58;;;;;;;8.63;6.65;;;19.90;62.70;;;;;;5001883;28;20011;-94
2022/05/02 11:41:29;;;;;;;8.30;6.78;;;19.90;62.50;;;;;;4988622;28;20034;-94
2022/05/02 11:44:12;;;;;;;8.38;6.88;;;19.90;62.30;;;;;;4964831;28;20026;-96
2022/05/02 11:47:06;;;;;;;9.25;7.10;;;20.00;62.40;;;;;;5021908;23;20061;-92
2022/05/02 11:49:52;;;;;;;9.68;7.38;;;20.10;62.10;;;;;;4998410;28;20014;-94
2022/05/02 11:52:31;;;;;;;7.97;6.60;;;20.20;61.80;;;;;;5016486;28;20025;-92
2022/05/02 11:54:57;;;;;;;11.25;7.63;;;20.20;61.20;;;;;;4998723;28;20084;-93
2022/05/02 11:57:37;;;;;;;10.93;7.15;;;20.20;59.30;;;;;;5015964;28;20064;-93
2022/05/02 12:00:18;;;;;;;8.52;6.93;;;20.20;59.50;;;;;;5018123;28;20026;-93
2022/05/02 12:47:23;;;;;;;9.85;8.43;;;21.40;57.00;;;;;;4996878;28;20054;-85
2022/05/02 12:50:12;;;;;;;9.38;7.28;;;21.40;55.00;;;;;;4998577;28;20031;-85
2022/05/02 12:52:48;;;;;;;10.18;7.82;;;21.40;55.20;;;;;;4998349;28;20081;-85
2022/05/02 12:55:15;;;;;;;9.75;6.63;;;21.40;54.30;;;;;;4998073;28;20049;-85
2022/05/02 13:00:48;;;;;;;10.38;7.32;;;21.50;55.20;;;;;;4998189;28;20113;-85
2022/05/02 13:03:17;;;;;;;9.38;7.22;;;21.50;54.60;;;;;;4981174;28;20018;-85
2022/05/02 13:06:05;;;;;;;10.73;7.15;;;21.60;54.40;;;;;;4998255;28;20124;-85
2022/05/02 13:08:36;;;;;;;9.02;6.57;;;21.60;54.50;;;;;;4990762;28;20040;-85
2022/05/02 13:11:12;;;;;;;8.73;6.18;;;21.60;55.10;;;;;;4965324;28;20463;-85
2022/05/02 13:13:48;;;;;;;8.13;6.38;;;21.70;55.40;;;;;;4981659;28;20418;-85
2022/05/02 13:16:14;;;;;;;8.35;6.38;;;21.80;55.70;;;;;;4979415;28;20060;-85
2022/05/02 13:18:48;;;;;;;7.93;5.63;;;21.90;55.80;;;;;;4980576;28;20058;-85
2022/05/02 13:21:17;;;;;;;8.32;5.95;;;22.00;56.10;;;;;;4981366;28;20027;-86
2022/05/02 13:23:49;;;;;;;8.80;6.10;;;22.00;56.10;;;;;;4997478;28;20030;-85
2022/05/02 13:26:26;;;;;;;8.77;6.18;;;22.10;56.00;;;;;;4980350;28;20122;-84
2022/05/02 13:29:03;;;;;;;7.10;5.45;;;22.30;55.40;;;;;;4980545;28;20019;-85
2022/05/02 13:31:32;;;;;;;9.02;5.95;;;22.30;55.20;;;;;;4998951;28;20026;-85
2022/05/02 13:34:02;;;;;;;8.20;6.35;;;22.40;55.30;;;;;;4983273;28;20023;-85
2022/05/02 13:36:30;;;;;;;7.18;6.20;;;22.50;55.40;;;;;;4981508;28;20118;-84
2022/05/02 13:39:10;;;;;;;8.23;5.95;;;22.60;55.50;;;;;;4998882;28;20034;-84
2022/05/02 13:41:43;;;;;;;8.07;6.03;;;22.60;55.30;;;;;;4999873;28;20153;-84
2022/05/02 13:44:21;;;;;;;9.27;6.38;;;22.70;55.10;;;;;;4997535;28;20018;-87
2022/05/02 13:46:57;;;;;;;7.38;5.55;;;22.80;54.60;;;;;;4998001;28;20058;-86
2022/05/02 13:49:37;;;;;;;8.35;6.28;;;22.80;54.20;;;;;;4980430;28;20022;-86
2022/05/02 13:52:09;;;;;;;8.07;6.28;;;22.90;53.40;;;;;;4997846;28;20497;-85
2022/05/02 13:54:39;;;;;;;6.55;4.57;;;22.90;53.10;;;;;;4982947;28;20028;-86
2022/05/02 13:57:21;;;;;;;7.25;5.22;;;22.90;53.30;;;;;;4966701;28;20031;-85
2022/05/02 14:03:02;;;;;;;7.32;5.68;;;23.00;53.80;;;;;;4996772;28;20034;-85
2022/05/02 14:05:52;;;;;;;7.82;5.20;;;23.10;53.60;;;;;;4995532;28;20019;-85
2022/05/02 14:08:19;;;;;;;7.47;5.18;;;23.10;53.30;;;;;;4983097;28;20026;-86
2022/05/02 14:10:58;;;;;;;6.53;5.25;;;23.20;53.00;;;;;;4983693;28;20081;-85
2022/05/02 14:13:26;;;;;;;7.40;4.43;;;23.20;52.00;;;;;;4968619;28;20072;-83
2022/05/02 14:16:12;;;;;;;8.70;5.70;;;23.20;52.10;;;;;;4973223;28;20081;-85
2022/05/02 14:18:55;;;;;;;7.82;6.70;;;23.30;51.90;;;;;;4975259;28;20475;-83
2022/05/02 14:21:23;;;;;;;7.57;5.85;;;23.30;50.80;;;;;;5003381;28;20041;-84
2022/05/02 14:23:59;;;;;;;7.20;5.63;;;23.20;50.20;;;;;;4982472;28;20394;-84
2022/05/02 14:26:30;;;;;;;6.15;5.03;;;23.20;50.00;;;;;;4981049;28;20038;-84
2022/05/02 14:28:57;;;;;;;7.93;5.50;;;23.20;49.90;;;;;;4981784;28;20030;-84
2022/05/02 14:31:37;;;;;;;6.10;4.90;;;23.20;50.00;;;;;;4983184;28;20026;-84